メインページ
METAR-TAF:

METAR-TAF

空港 :

ボンリキ国際空港

タラワ, キリバス

緯度: 01-21N, 経度: 172-55E, 海抜: 2m

現時点の気象観測

当レポートは56分前の03:00(UTC)に作成
北/北東の風 5kt
気温 30°C
湿度 75%
気圧 1008 hPa
視程10km以上
高度2000ftの雲はほとんどない
高度10000ftの雲は散在している
高度30000ftの千切れ雲あり

METAR: NGTA 250300Z 03005KT 9999 FEW020 SCT100 BKN300 30/25 Q1008

時間: 17:56 (03:56 UTC)

予報

当レポートは4時間29分前の23:27(UTC)に作成
予報は25日の 00時(UTC)から 25日の 24時(UTC)まで有効
東/南東の風 6kt
視程10km以上
高度2000ftの雲はほとんどない
高度4000ftの雲は散在している
高度10000ftの曇り
小雨
確率 40% :
25日の 00時(UTC)から 25日の 09時(UTC)まで一時的に
視程: 3000m
高度1500ftの千切れ雲あり
高度1600ftの雲はほとんどない, 積乱雲.
激しい雷雨, 雨
確率 30% :
25日の 09時(UTC)から 25日の 15時(UTC)まで一時的に
視程: 5000m
高度1800ftの雲はほとんどない, 積乱雲.
激しい雷雨, 雨

TAF: NGTA 242327Z 2500/2524 11006KT 9999 -RA FEW020 SCT040 OVC100 PROB40 TEMPO 2500/2509 3000 TSRA BKN015 FEW016CB PROB30 TEMPO 2509/2515 5000 TSRA FEW018CB

4,000以上の空港の気象観測と天気予報(METAR報とTAF報)

利用可能な観測所は地図上に黄色い丸と赤い丸で示す。

丸の上にカーソルを重ねると観測所名を参照できる。

次にクリックすると気象観測と天気予報を参照できる。

マップの切り替え:黒色「×」印の緑ボタンをクリックして拡大、「-」印の緑ボタンをクリックして縮小、緑色の三角印をクリックして隣りの地図に切り替え


METAR-TAF: